Time;durP1;ratioP1;P1;durP2;ratioP2;P2;SDS_P1;SDS_P2;PMS_P1;PMS_P2;Temp;Humidity;BMP_temperature;BMP_pressure;BME280_temperature;BME280_humidity;BME280_pressure;Samples;Min_cycle;Max_cycle;Signal;HPM_P1;HPM_P2
2023/03/28 00:01:36;;;;;;;0.10;0.10;;;3.80;87.90;;;;;;5095594;28;20035;-86
2023/03/28 00:04:02;;;;;;;0.03;0.03;;;3.70;87.90;;;;;;5096491;28;20024;-84
2023/03/28 00:06:28;;;;;;;0.00;0.00;;;3.70;88.30;;;;;;5098264;28;20027;-83
2023/03/28 00:08:54;;;;;;;0.10;0.10;;;3.60;88.20;;;;;;5102923;28;20027;-83
2023/03/28 00:11:21;;;;;;;0.03;0.03;;;3.70;87.80;;;;;;5081536;28;20067;-84
2023/03/28 00:13:47;;;;;;;;;;;3.60;88.00;;;;;;5094527;28;20147;-82
2023/03/28 00:16:13;;;;;;;0.10;0.10;;;3.60;88.20;;;;;;5096232;28;20640;-86
2023/03/28 00:18:40;;;;;;;0.08;0.08;;;3.50;89.10;;;;;;5091372;28;20024;-85
2023/03/28 00:21:16;;;;;;;;;;;3.50;88.50;;;;;;5086210;28;20040;-86
2023/03/28 00:23:42;;;;;;;0.00;0.00;;;3.50;89.10;;;;;;5099397;28;19982;-84
2023/03/28 00:26:08;;;;;;;0.30;0.30;;;3.50;89.00;;;;;;5096580;28;20081;-84
2023/03/28 00:28:34;;;;;;;0.10;0.10;;;3.40;89.30;;;;;;5091124;28;20036;-85
2023/03/28 00:31:06;;;;;;;0.10;0.05;;;3.30;89.80;;;;;;5091838;28;20039;-86
2023/03/28 00:33:32;;;;;;;0.10;0.10;;;3.30;90.00;;;;;;5101798;28;20047;-84
2023/03/28 00:35:58;;;;;;;0.25;0.20;;;3.40;89.70;;;;;;5104671;28;20031;-83
2023/03/28 00:38:26;;;;;;;0.00;0.00;;;3.30;89.90;;;;;;5090028;28;20038;-83
2023/03/28 00:40:54;;;;;;;0.10;0.10;;;3.20;90.30;;;;;;5090236;28;20039;-84
2023/03/28 00:43:42;;;;;;;0.10;0.10;;;3.10;90.60;;;;;;5094942;28;20036;-82
2023/03/28 00:46:31;;;;;;;0.08;0.08;;;3.10;90.60;;;;;;5096448;28;20031;-82
2023/03/28 00:49:04;;;;;;;0.10;0.10;;;3.20;90.50;;;;;;5095093;28;20028;-82
2023/03/28 00:51:35;;;;;;;0.10;0.10;;;3.20;90.60;;;;;;5101437;28;20031;-83
2023/03/28 00:54:03;;;;;;;0.43;0.43;;;3.10;90.70;;;;;;5102676;28;20076;-82
2023/03/28 00:56:33;;;;;;;0.05;0.05;;;3.00;91.00;;;;;;5081350;28;20024;-82
2023/03/28 00:59:03;;;;;;;0.38;0.38;;;3.00;91.00;;;;;;5092940;28;20510;-82
2023/03/28 01:01:29;;;;;;;0.57;0.57;;;3.00;91.00;;;;;;5101377;28;20773;-82
2023/03/28 01:04:04;;;;;;;0.20;0.20;;;2.90;91.20;;;;;;5103754;28;20042;-82
2023/03/28 01:06:36;;;;;;;0.10;0.10;;;2.90;91.30;;;;;;5072703;28;20035;-81
2023/03/28 01:09:05;;;;;;;0.15;0.15;;;2.90;91.60;;;;;;5083441;28;20474;-83
2023/03/28 01:11:33;;;;;;;0.10;0.10;;;2.90;91.60;;;;;;5099105;28;20491;-84
2023/03/28 01:14:01;;;;;;;1.17;1.10;;;2.90;91.70;;;;;;5094941;28;20784;-82
2023/03/28 01:16:29;;;;;;;0.00;0.00;;;2.80;91.70;;;;;;5100786;28;20030;-83
2023/03/28 01:19:00;;;;;;;0.32;0.20;;;2.70;92.10;;;;;;5084864;28;20023;-84
2023/03/28 01:21:57;;;;;;;0.75;0.60;;;2.60;92.30;;;;;;5101445;28;20871;-84
2023/03/28 01:24:47;;;;;;;0.20;0.20;;;2.70;92.20;;;;;;5096189;28;20027;-85
2023/03/28 01:27:40;;;;;;;0.20;0.20;;;2.60;92.10;;;;;;5090817;28;20119;-85
2023/03/28 01:30:37;;;;;;;0.03;0.03;;;2.70;92.00;;;;;;5098137;28;20713;-86
2023/03/28 01:33:14;;;;;;;0.10;0.10;;;2.70;92.00;;;;;;5091916;28;20075;-85
2023/03/28 01:35:58;;;;;;;0.30;0.15;;;2.70;92.10;;;;;;5074445;28;20034;-85
2023/03/28 01:38:28;;;;;;;0.10;0.10;;;2.70;92.00;;;;;;5089345;28;20039;-85
2023/03/28 01:41:12;;;;;;;0.10;0.10;;;2.70;92.10;;;;;;5096913;28;20051;-85
2023/03/28 01:44:07;;;;;;;0.10;0.10;;;2.60;92.20;;;;;;5098144;28;20783;-85
2023/03/28 01:46:42;;;;;;;0.10;0.10;;;2.60;92.10;;;;;;5098502;28;20019;-84
2023/03/28 01:49:11;;;;;;;0.50;0.50;;;2.60;92.40;;;;;;5096649;28;20594;-84
2023/03/28 01:51:49;;;;;;;0.10;0.10;;;2.50;92.40;;;;;;5103547;27;20123;-84
2023/03/28 01:54:50;;;;;;;0.20;0.20;;;2.50;92.50;;;;;;5097741;28;20031;-84
2023/03/28 01:57:27;;;;;;;0.65;0.65;;;2.50;92.50;;;;;;5078925;28;20050;-86
2023/03/28 01:59:57;;;;;;;0.40;0.40;;;2.40;92.80;;;;;;5095474;28;20040;-85
2023/03/28 02:02:37;;;;;;;0.10;0.10;;;2.40;93.10;;;;;;5096804;28;20561;-86
2023/03/28 02:05:07;;;;;;;0.10;0.10;;;2.40;93.10;;;;;;5096969;28;20034;-85
2023/03/28 02:07:34;;;;;;;0.10;0.10;;;2.40;93.20;;;;;;5094925;28;20027;-87
2023/03/28 02:10:03;;;;;;;0.05;0.05;;;2.40;93.20;;;;;;5097171;28;20035;-87
2023/03/28 02:12:34;;;;;;;0.30;0.30;;;2.40;93.30;;;;;;5094922;28;20055;-85
2023/03/28 02:15:04;;;;;;;0.00;0.00;;;2.30;93.60;;;;;;5069971;28;20127;-87
2023/03/28 02:17:36;;;;;;;1.30;0.73;;;2.20;94.10;;;;;;5099940;28;20035;-87
2023/03/28 02:20:07;;;;;;;0.00;0.00;;;2.10;94.60;;;;;;5068694;28;20835;-88
2023/03/28 02:22:36;;;;;;;0.10;0.10;;;2.00;95.00;;;;;;5092093;28;20098;-87
2023/03/28 02:25:03;;;;;;;0.00;0.00;;;1.90;95.40;;;;;;5092931;28;20035;-87
2023/03/28 02:27:31;;;;;;;0.10;0.10;;;1.90;95.70;;;;;;5071418;28;20034;-85
2023/03/28 02:29:57;;;;;;;0.10;0.10;;;1.80;95.90;;;;;;5094409;28;20032;-86
2023/03/28 02:32:23;;;;;;;0.00;0.00;;;1.80;96.20;;;;;;5071791;28;20547;-87
2023/03/28 02:34:52;;;;;;;2.92;1.40;;;1.70;96.60;;;;;;5095173;28;20042;-88
2023/03/28 02:37:30;;;;;;;0.20;0.20;;;1.70;97.00;;;;;;5093815;28;20042;-88
2023/03/28 02:40:24;;;;;;;0.05;0.05;;;1.70;97.40;;;;;;5067165;28;20071;-86
2023/03/28 02:43:21;;;;;;;0.10;0.10;;;1.70;97.30;;;;;;5085197;28;20107;-84
2023/03/28 02:46:07;;;;;;;0.30;0.30;;;1.70;97.30;;;;;;5064840;27;20036;-85
2023/03/28 02:49:01;;;;;;;0.50;0.50;;;1.60;97.50;;;;;;5081038;28;20040;-83
2023/03/28 02:51:35;;;;;;;0.35;0.35;;;1.50;97.70;;;;;;5091627;28;20027;-82
2023/03/28 02:54:27;;;;;;;0.10;0.10;;;1.50;97.80;;;;;;5076763;28;20549;-82
2023/03/28 02:57:17;;;;;;;0.30;0.30;;;1.60;98.00;;;;;;5097931;28;20042;-82
2023/03/28 02:59:56;;;;;;;1.67;1.58;;;1.60;97.90;;;;;;5097437;28;20058;-82
2023/03/28 03:02:22;;;;;;;0.17;0.17;;;1.50;98.30;;;;;;5100455;28;20031;-82
2023/03/28 03:04:49;;;;;;;0.10;0.10;;;1.50;98.20;;;;;;5098160;28;20032;-82
2023/03/28 03:07:17;;;;;;;0.10;0.10;;;1.60;98.00;;;;;;5094443;28;20111;-82
2023/03/28 03:09:44;;;;;;;7.65;0.80;;;1.60;97.90;;;;;;5094164;28;20051;-82
2023/03/28 03:12:11;;;;;;;0.15;0.15;;;1.50;98.10;;;;;;5091295;28;20023;-82
2023/03/28 03:14:37;;;;;;;0.10;0.10;;;1.50;98.30;;;;;;5100721;28;20035;-81
2023/03/28 03:17:04;;;;;;;0.05;0.05;;;1.50;98.60;;;;;;5076004;28;20020;-82
2023/03/28 03:19:31;;;;;;;0.10;0.10;;;1.40;98.60;;;;;;5083041;28;20064;-81
2023/03/28 03:21:57;;;;;;;0.10;0.10;;;1.50;98.60;;;;;;5096798;28;20048;-82
2023/03/28 03:24:23;;;;;;;0.38;0.38;;;1.40;98.80;;;;;;5065773;28;20079;-82
2023/03/28 03:26:50;;;;;;;0.20;0.20;;;1.50;98.70;;;;;;5101039;28;20535;-81
2023/03/28 03:29:16;;;;;;;0.10;0.10;;;1.50;98.70;;;;;;5070507;28;20103;-81
2023/03/28 03:31:41;;;;;;;0.10;0.10;;;1.50;98.70;;;;;;5096403;28;20036;-82
2023/03/28 03:34:07;;;;;;;0.20;0.20;;;1.40;99.00;;;;;;5087871;28;20047;-82
2023/03/28 03:36:33;;;;;;;0.57;0.57;;;1.40;99.00;;;;;;5071206;28;20027;-85
2023/03/28 03:38:58;;;;;;;0.28;0.28;;;1.40;99.00;;;;;;5087389;28;20028;-85
2023/03/28 03:41:24;;;;;;;0.10;0.10;;;1.30;99.20;;;;;;5069742;28;20443;-86
2023/03/28 03:43:50;;;;;;;0.10;0.10;;;1.30;99.40;;;;;;5091058;28;20453;-84
2023/03/28 03:46:16;;;;;;;0.10;0.10;;;1.30;99.60;;;;;;5096707;28;20027;-82
2023/03/28 03:48:42;;;;;;;0.20;0.20;;;1.20;99.70;;;;;;5093209;28;20085;-83
2023/03/28 03:51:08;;;;;;;0.43;0.43;;;1.10;99.90;;;;;;5098594;28;20020;-83
2023/03/28 03:53:34;;;;;;;0.20;0.20;;;1.10;99.90;;;;;;5086769;28;20080;-85
2023/03/28 03:56:01;;;;;;;0.10;0.10;;;1.10;99.90;;;;;;5104550;28;20019;-82
2023/03/28 03:58:27;;;;;;;0.10;0.10;;;1.10;99.90;;;;;;5100735;28;20088;-85
2023/03/28 04:00:53;;;;;;;0.20;0.20;;;1.10;99.90;;;;;;5083880;28;20080;-85
2023/03/28 04:03:18;;;;;;;0.10;0.10;;;1.10;99.90;;;;;;5104833;28;20724;-85
2023/03/28 04:05:44;;;;;;;0.38;0.38;;;1.20;99.90;;;;;;5100820;28;20469;-84
2023/03/28 04:08:10;;;;;;;0.05;0.05;;;1.10;99.90;;;;;;5104061;28;20039;-85
2023/03/28 04:10:36;;;;;;;0.10;0.10;;;1.10;99.90;;;;;;5104594;28;20453;-85
2023/03/28 04:13:03;;;;;;;1.20;1.17;;;1.10;99.90;;;;;;5103593;28;20480;-85
2023/03/28 04:15:28;;;;;;;0.10;0.10;;;1.00;99.90;;;;;;5098277;28;20020;-84
2023/03/28 04:17:55;;;;;;;0.10;0.10;;;1.10;99.90;;;;;;5097960;28;20395;-85
2023/03/28 04:20:28;;;;;;;0.10;0.10;;;1.10;99.90;;;;;;5101974;28;20110;-85
2023/03/28 04:22:54;;;;;;;2.90;0.68;;;1.10;99.90;;;;;;5098596;28;20776;-84
2023/03/28 04:25:20;;;;;;;0.10;0.10;;;1.10;99.90;;;;;;5096402;28;20071;-84
2023/03/28 04:27:46;;;;;;;0.10;0.10;;;1.10;99.90;;;;;;5098866;28;20142;-85
2023/03/28 04:30:16;;;;;;;0.10;0.10;;;1.10;99.90;;;;;;5101569;28;20474;-86
2023/03/28 04:32:42;;;;;;;0.00;0.00;;;1.10;99.90;;;;;;5095851;28;20132;-86
2023/03/28 04:35:10;;;;;;;0.00;0.00;;;1.10;99.90;;;;;;5058589;28;20111;-84
2023/03/28 04:37:36;;;;;;;0.10;0.10;;;1.10;99.90;;;;;;5055659;28;20029;-85
2023/03/28 04:40:09;;;;;;;0.10;0.10;;;1.00;99.90;;;;;;5052447;28;20029;-83
2023/03/28 04:42:36;;;;;;;0.20;0.20;;;1.00;99.90;;;;;;5064006;28;20040;-85
2023/03/28 04:45:03;;;;;;;0.10;0.10;;;1.00;99.90;;;;;;5054979;28;20024;-83
2023/03/28 04:47:29;;;;;;;0.10;0.10;;;0.90;99.90;;;;;;5081581;28;20036;-83
2023/03/28 04:49:54;;;;;;;0.00;0.00;;;0.90;99.90;;;;;;5063300;28;20032;-84
2023/03/28 04:52:20;;;;;;;0.20;0.20;;;0.90;99.90;;;;;;5064787;28;20028;-84
2023/03/28 04:54:46;;;;;;;0.10;0.10;;;0.90;99.90;;;;;;5085372;28;20023;-85
2023/03/28 04:57:12;;;;;;;0.10;0.10;;;0.90;99.90;;;;;;5066035;28;20134;-86
2023/03/28 04:59:38;;;;;;;0.10;0.10;;;0.80;99.90;;;;;;5084314;28;20107;-88
2023/03/28 05:02:03;;;;;;;0.00;0.00;;;0.80;99.90;;;;;;5085217;28;20078;-85
2023/03/28 05:04:29;;;;;;;0.10;0.10;;;0.90;99.90;;;;;;5079696;28;20403;-86
2023/03/28 05:06:56;;;;;;;0.10;0.10;;;0.90;99.90;;;;;;5078667;28;20459;-86
2023/03/28 05:09:22;;;;;;;0.38;0.38;;;0.80;99.90;;;;;;5064762;28;20036;-86
2023/03/28 05:11:48;;;;;;;0.10;0.10;;;0.80;99.90;;;;;;5079934;28;20028;-85
2023/03/28 05:14:14;;;;;;;0.10;0.10;;;0.90;99.90;;;;;;5078173;28;20028;-84
2023/03/28 05:16:40;;;;;;;0.10;0.10;;;0.80;99.90;;;;;;5082649;28;20028;-86
2023/03/28 05:19:06;;;;;;;0.10;0.10;;;0.80;99.90;;;;;;5067441;28;20071;-88
2023/03/28 05:21:31;;;;;;;0.05;0.05;;;0.80;99.90;;;;;;5080353;28;20406;-83
2023/03/28 05:23:57;;;;;;;0.10;0.10;;;0.80;99.90;;;;;;5078718;28;20032;-86
2023/03/28 05:26:23;;;;;;;0.10;0.10;;;0.80;99.90;;;;;;5076849;28;20431;-84
2023/03/28 05:28:49;;;;;;;0.10;0.10;;;0.80;99.90;;;;;;5071591;28;20024;-85
2023/03/28 05:31:16;;;;;;;0.10;0.10;;;0.70;99.90;;;;;;5076547;28;20036;-85
2023/03/28 05:33:42;;;;;;;0.10;0.10;;;0.80;99.90;;;;;;5087820;28;20810;-86
2023/03/28 05:36:08;;;;;;;0.10;0.10;;;0.80;99.90;;;;;;5083723;28;20027;-86
2023/03/28 05:38:33;;;;;;;0.45;0.45;;;0.90;99.90;;;;;;5101113;28;20073;-84
2023/03/28 05:40:59;;;;;;;0.52;0.30;;;0.90;99.90;;;;;;5098091;28;20047;-85
2023/03/28 05:43:25;;;;;;;0.03;0.03;;;0.80;99.90;;;;;;5101778;28;20066;-86
2023/03/28 05:45:51;;;;;;;1.13;0.65;;;0.80;99.90;;;;;;5093370;28;20064;-86
2023/03/28 05:48:17;;;;;;;0.10;0.10;;;0.80;99.90;;;;;;5089188;28;20043;-81
2023/03/28 05:50:46;;;;;;;0.10;0.10;;;0.80;99.90;;;;;;5095022;28;20040;-81
2023/03/28 05:53:12;;;;;;;0.20;0.20;;;0.90;99.90;;;;;;5096055;28;20027;-82
2023/03/28 05:55:37;;;;;;;0.10;0.10;;;1.00;99.90;;;;;;5082988;28;20027;-81
2023/03/28 05:58:05;;;;;;;0.00;0.00;;;1.70;99.40;;;;;;5100807;28;20024;-81
2023/03/28 06:00:31;;;;;;;0.10;0.10;;;2.00;98.10;;;;;;5100912;28;20167;-80
2023/03/28 06:02:57;;;;;;;0.20;0.20;;;1.80;98.50;;;;;;5101737;28;20531;-81
2023/03/28 06:05:24;;;;;;;0.20;0.20;;;1.50;99.10;;;;;;5082995;28;20066;-81
2023/03/28 06:07:50;;;;;;;0.10;0.10;;;1.60;99.00;;;;;;5102517;28;20024;-81
2023/03/28 06:10:16;;;;;;;0.10;0.10;;;1.50;98.90;;;;;;5100723;28;20087;-81
2023/03/28 06:12:42;;;;;;;0.10;0.10;;;1.60;98.80;;;;;;5102964;28;20269;-80
2023/03/28 06:15:09;;;;;;;0.13;0.13;;;1.60;98.70;;;;;;5081095;28;20024;-81
2023/03/28 06:17:35;;;;;;;0.03;0.03;;;1.70;98.10;;;;;;5083914;28;20126;-81
2023/03/28 06:20:03;;;;;;;1.27;0.35;;;1.60;98.70;;;;;;5099083;28;20040;-80
2023/03/28 06:22:29;;;;;;;0.10;0.10;;;1.60;98.80;;;;;;5091758;28;20082;-81
2023/03/28 06:24:54;;;;;;;0.00;0.00;;;1.70;98.70;;;;;;5097972;28;20475;-82
2023/03/28 06:27:21;;;;;;;0.32;0.32;;;1.70;98.50;;;;;;5097864;28;20104;-78
2023/03/28 06:29:46;;;;;;;0.10;0.10;;;1.80;98.10;;;;;;5089239;28;20562;-79
2023/03/28 06:32:12;;;;;;;0.17;0.17;;;2.10;97.70;;;;;;5097159;28;20076;-78
2023/03/28 06:34:38;;;;;;;0.10;0.10;;;2.80;96.70;;;;;;5100038;28;20096;-78
2023/03/28 06:37:03;;;;;;;0.10;0.10;;;4.60;93.50;;;;;;5099300;28;20066;-79
2023/03/28 06:39:29;;;;;;;0.10;0.10;;;5.80;90.40;;;;;;5099596;28;20101;-79
2023/03/28 06:41:55;;;;;;;0.10;0.10;;;5.60;90.00;;;;;;5098150;28;20028;-79
2023/03/28 06:44:21;;;;;;;0.17;0.17;;;4.80;90.40;;;;;;5094109;28;20637;-79
2023/03/28 06:46:47;;;;;;;0.10;0.10;;;4.10;91.40;;;;;;5098872;28;20027;-79
2023/03/28 06:49:13;;;;;;;3.10;0.50;;;3.80;92.00;;;;;;5096751;28;20024;-78
2023/03/28 06:51:38;;;;;;;0.30;0.20;;;3.30;93.10;;;;;;5097162;28;20038;-78
2023/03/28 06:54:04;;;;;;;0.10;0.10;;;3.00;93.70;;;;;;5097436;28;20132;-79
2023/03/28 06:56:30;;;;;;;0.03;0.03;;;2.80;94.30;;;;;;5102544;28;20034;-79
2023/03/28 06:58:56;;;;;;;0.10;0.10;;;3.60;93.70;;;;;;5101693;28;20694;-79
2023/03/28 07:01:21;;;;;;;0.10;0.10;;;4.90;91.90;;;;;;5102016;28;20039;-80
2023/03/28 07:03:47;;;;;;;0.22;0.22;;;5.80;90.20;;;;;;5095680;28;20028;-78
2023/03/28 07:06:13;;;;;;;0.10;0.10;;;5.10;90.00;;;;;;5075536;28;20039;-79
2023/03/28 07:08:38;;;;;;;0.10;0.10;;;6.10;89.40;;;;;;5087308;28;20123;-79
2023/03/28 07:11:04;;;;;;;0.10;0.10;;;6.60;87.10;;;;;;5082192;28;20135;-79
2023/03/28 07:13:30;;;;;;;4.63;0.50;;;7.10;86.70;;;;;;5076155;28;20507;-80
2023/03/28 07:16:09;;;;;;;0.47;0.47;;;7.10;87.50;;;;;;5071621;28;20331;-78
2023/03/28 07:18:35;;;;;;;0.20;0.20;;;7.50;84.10;;;;;;5096428;28;20036;-79
2023/03/28 07:21:08;;;;;;;0.10;0.10;;;7.30;84.10;;;;;;5072811;28;20417;-78
2023/03/28 07:23:34;;;;;;;0.10;0.10;;;7.70;82.90;;;;;;5076815;28;20028;-80
2023/03/28 07:26:00;;;;;;;0.30;0.30;;;7.40;81.90;;;;;;5103900;28;20083;-80
2023/03/28 07:28:26;;;;;;;0.10;0.10;;;7.90;81.30;;;;;;5103873;28;20058;-78
2023/03/28 07:30:55;;;;;;;0.28;0.28;;;8.70;81.80;;;;;;5105488;28;20040;-79
2023/03/28 07:33:21;;;;;;;0.15;0.15;;;8.80;78.50;;;;;;5086871;28;20564;-79
2023/03/28 07:35:46;;;;;;;0.38;0.38;;;9.10;78.50;;;;;;5099431;28;20024;-80
2023/03/28 07:38:12;;;;;;;0.10;0.10;;;9.50;77.20;;;;;;5074757;28;20027;-79
2023/03/28 07:40:38;;;;;;;0.08;0.08;;;9.90;74.60;;;;;;5091544;28;20032;-79
2023/03/28 07:43:04;;;;;;;0.10;0.10;;;9.80;74.20;;;;;;5104987;28;20080;-79
2023/03/28 07:45:30;;;;;;;0.00;0.00;;;10.40;75.60;;;;;;5094891;28;20535;-79
2023/03/28 07:47:56;;;;;;;0.10;0.10;;;10.40;73.50;;;;;;5073137;28;20444;-80
2023/03/28 07:50:22;;;;;;;0.20;0.20;;;11.00;71.10;;;;;;5105660;28;20035;-79
2023/03/28 07:52:48;;;;;;;0.10;0.10;;;11.30;70.90;;;;;;5073725;28;20027;-80
2023/03/28 07:55:14;;;;;;;0.00;0.00;;;11.70;68.10;;;;;;5095785;28;20097;-80
2023/03/28 07:57:40;;;;;;;0.10;0.10;;;11.60;67.70;;;;;;5099532;28;20042;-80
2023/03/28 08:00:11;;;;;;;0.03;0.03;;;12.60;65.70;;;;;;5095243;28;20027;-80
2023/03/28 08:02:39;;;;;;;0.10;0.10;;;12.20;64.20;;;;;;5089848;28;20525;-80
2023/03/28 08:05:05;;;;;;;0.93;0.85;;;12.30;64.20;;;;;;5098656;28;20024;-80
2023/03/28 08:07:32;;;;;;;0.10;0.10;;;12.50;62.60;;;;;;5097435;28;20036;-79
2023/03/28 08:09:59;;;;;;;0.00;0.00;;;13.10;61.80;;;;;;5105433;28;20024;-80
2023/03/28 08:12:25;;;;;;;0.20;0.20;;;14.00;62.30;;;;;;5097547;28;20034;-80
2023/03/28 08:14:50;;;;;;;0.23;0.23;;;13.80;59.60;;;;;;5101619;28;20395;-80
2023/03/28 08:17:16;;;;;;;0.00;0.00;;;14.40;58.10;;;;;;5099880;28;20051;-80
2023/03/28 08:19:43;;;;;;;0.00;0.00;;;15.40;59.10;;;;;;5101659;28;20024;-80
2023/03/28 08:22:09;;;;;;;0.00;0.00;;;14.80;53.60;;;;;;5098939;28;20054;-80
2023/03/28 08:24:35;;;;;;;0.00;0.00;;;15.20;55.80;;;;;;5079422;28;20032;-80
2023/03/28 08:27:01;;;;;;;0.00;0.00;;;15.70;56.30;;;;;;5094298;28;20024;-80
2023/03/28 08:29:26;;;;;;;0.20;0.20;;;15.90;54.90;;;;;;5099761;28;20020;-80
2023/03/28 08:31:52;;;;;;;0.00;0.00;;;16.00;54.60;;;;;;5095222;28;20055;-79
2023/03/28 08:34:18;;;;;;;0.00;0.00;;;15.70;54.10;;;;;;5088996;28;20047;-80
2023/03/28 08:36:43;;;;;;;0.20;0.20;;;15.40;55.00;;;;;;5105052;28;20031;-79
2023/03/28 08:39:09;;;;;;;0.00;0.00;;;15.70;57.60;;;;;;5103460;28;20019;-80
2023/03/28 08:42:02;;;;;;;0.00;0.00;;;15.60;53.70;;;;;;5095568;28;20036;-80
2023/03/28 08:44:37;;;;;;;0.22;0.22;;;15.50;53.20;;;;;;5076079;28;20042;-80
2023/03/28 08:47:20;;;;;;;2.20;0.98;;;15.20;54.40;;;;;;5071658;28;20020;-79
2023/03/28 08:49:55;;;;;;;0.10;0.10;;;15.90;52.60;;;;;;5091172;28;20084;-80
2023/03/28 08:52:21;;;;;;;0.05;0.05;;;16.20;55.30;;;;;;5103882;28;20088;-80
2023/03/28 08:55:31;;;;;;;0.32;0.32;;;16.40;52.80;;;;;;5079930;28;20853;-79
2023/03/28 08:57:57;;;;;;;0.00;0.00;;;16.10;52.80;;;;;;4984553;28;20057;-80
2023/03/28 09:00:29;;;;;;;3.78;0.73;;;16.80;53.60;;;;;;5001601;28;20041;-80
2023/03/28 09:02:56;;;;;;;0.00;0.00;;;17.00;52.70;;;;;;5049245;28;20151;-80
2023/03/28 09:05:46;;;;;;;0.00;0.00;;;16.90;52.40;;;;;;5090372;28;20039;-79
2023/03/28 09:08:35;;;;;;;0.08;0.08;;;17.00;53.20;;;;;;5093192;28;20506;-80
2023/03/28 09:11:32;;;;;;;0.00;0.00;;;17.40;50.50;;;;;;5097978;28;20036;-80
2023/03/28 09:14:09;;;;;;;0.10;0.10;;;18.00;49.80;;;;;;5086117;28;20536;-80
2023/03/28 09:16:57;;;;;;;0.10;0.10;;;17.20;50.00;;;;;;5087381;28;20466;-80
2023/03/28 09:19:48;;;;;;;0.65;0.65;;;17.60;47.40;;;;;;5075811;28;20036;-80
2023/03/28 09:22:35;;;;;;;0.05;0.05;;;16.40;46.10;;;;;;5086774;28;20032;-80
2023/03/28 09:25:27;;;;;;;0.00;0.00;;;18.50;45.00;;;;;;5087906;28;20108;-81
2023/03/28 09:28:10;;;;;;;0.00;0.00;;;18.60;43.70;;;;;;5102078;28;20047;-80
2023/03/28 09:30:48;;;;;;;0.88;0.82;;;18.80;43.70;;;;;;5093104;28;20410;-80
2023/03/28 09:33:24;;;;;;;0.03;0.03;;;19.90;44.00;;;;;;5103219;28;20082;-80
2023/03/28 09:35:51;;;;;;;0.10;0.10;;;18.10;43.80;;;;;;5089372;28;20027;-80
2023/03/28 09:38:40;;;;;;;0.03;0.03;;;19.00;42.60;;;;;;5093237;28;20028;-80
2023/03/28 09:41:20;;;;;;;0.08;0.08;;;19.60;42.50;;;;;;5083014;28;20031;-81
2023/03/28 09:43:52;;;;;;;0.00;0.00;;;20.00;42.40;;;;;;5104075;28;20034;-80
2023/03/28 09:46:51;;;;;;;0.08;0.08;;;20.00;43.10;;;;;;5100449;28;20568;-80
2023/03/28 09:49:20;;;;;;;0.00;0.00;;;20.40;42.50;;;;;;5044047;28;20039;-81
2023/03/28 09:51:47;;;;;;;1.20;0.52;;;21.20;41.60;;;;;;5076207;28;20028;-80
2023/03/28 09:54:12;;;;;;;0.00;0.00;;;20.90;41.50;;;;;;5098866;28;20027;-80
2023/03/28 09:56:43;;;;;;;0.30;0.30;;;20.40;44.10;;;;;;5098118;28;20072;-80
2023/03/28 09:59:24;;;;;;;0.08;0.08;;;20.40;42.50;;;;;;5097146;28;20024;-81
2023/03/28 10:01:52;;;;;;;0.00;0.00;;;20.90;40.60;;;;;;5103284;28;20043;-80
2023/03/28 10:04:31;;;;;;;0.10;0.10;;;20.80;42.40;;;;;;5094884;28;20498;-81
2023/03/28 10:07:35;;;;;;;0.13;0.13;;;20.60;41.40;;;;;;5096028;28;20127;-80
2023/03/28 10:10:15;;;;;;;0.00;0.00;;;19.00;42.10;;;;;;5101129;28;20027;-80
2023/03/28 10:12:42;;;;;;;0.10;0.10;;;18.20;46.00;;;;;;5102532;28;20792;-80
2023/03/28 10:15:32;;;;;;;0.45;0.45;;;16.40;48.80;;;;;;5096450;28;20118;-81
2023/03/28 10:18:03;;;;;;;0.30;0.30;;;16.60;47.30;;;;;;5099996;28;20027;-80
2023/03/28 10:20:34;;;;;;;4.43;0.57;;;16.40;47.50;;;;;;5084688;28;20055;-81
2023/03/28 10:23:01;;;;;;;0.00;0.00;;;16.60;45.70;;;;;;5089318;28;20051;-79
2023/03/28 10:25:39;;;;;;;0.00;0.00;;;16.70;49.20;;;;;;5079263;28;20031;-80
2023/03/28 10:28:07;;;;;;;0.10;0.10;;;16.50;47.40;;;;;;5084132;28;20028;-80
2023/03/28 10:30:34;;;;;;;0.17;0.17;;;16.50;48.50;;;;;;5102873;28;20035;-80
2023/03/28 10:33:06;;;;;;;0.10;0.10;;;16.50;46.00;;;;;;5102190;28;20055;-80
2023/03/28 10:35:33;;;;;;;0.10;0.10;;;15.90;44.70;;;;;;5084588;28;20118;-81
2023/03/28 10:38:03;;;;;;;0.00;0.00;;;15.80;43.80;;;;;;5099390;28;20581;-81
2023/03/28 10:40:30;;;;;;;0.30;0.28;;;15.20;46.40;;;;;;5100633;28;20077;-81
2023/03/28 10:42:57;;;;;;;0.20;0.20;;;15.60;50.80;;;;;;5084185;28;20076;-80
2023/03/28 10:45:34;;;;;;;0.20;0.20;;;15.20;49.00;;;;;;5099492;28;20088;-80
2023/03/28 10:48:05;;;;;;;0.10;0.10;;;15.50;47.90;;;;;;5080532;28;20100;-80
2023/03/28 10:50:39;;;;;;;0.08;0.08;;;15.40;48.70;;;;;;5103323;28;20031;-80
2023/03/28 10:53:21;;;;;;;0.10;0.10;;;15.60;48.90;;;;;;5096968;28;20032;-81
2023/03/28 10:56:13;;;;;;;0.25;0.25;;;15.60;47.90;;;;;;5096523;28;20020;-80
2023/03/28 10:59:04;;;;;;;0.10;0.10;;;15.50;50.70;;;;;;5077554;28;20488;-80
2023/03/28 11:02:07;;;;;;;0.47;0.47;;;15.50;48.10;;;;;;5094675;28;20036;-80
2023/03/28 11:04:49;;;;;;;0.20;0.20;;;15.10;49.00;;;;;;5092589;28;20039;-79
2023/03/28 11:07:31;;;;;;;0.20;0.20;;;15.10;49.60;;;;;;5084186;28;20031;-81
2023/03/28 11:09:59;;;;;;;0.00;0.00;;;15.00;50.30;;;;;;5077518;28;20511;-81
2023/03/28 11:13:06;;;;;;;0.28;0.28;;;14.90;45.80;;;;;;5087588;28;20023;-80
2023/03/28 11:16:21;;;;;;;0.88;0.45;;;15.30;45.20;;;;;;5086039;28;20034;-80
2023/03/28 11:19:02;;;;;;;0.00;0.00;;;15.60;48.30;;;;;;5027449;28;20032;-81
2023/03/28 11:21:27;;;;;;;0.00;0.00;;;16.00;44.80;;;;;;5100099;28;20486;-80
2023/03/28 11:24:21;;;;;;;0.10;0.10;;;15.60;44.30;;;;;;5094340;28;20031;-80
2023/03/28 11:26:57;;;;;;;0.77;0.47;;;15.50;48.70;;;;;;5091301;28;20034;-81
2023/03/28 11:29:42;;;;;;;;;;;15.70;47.50;;;;;;5101659;28;20020;-80
2023/03/28 11:32:07;;;;;;;0.00;0.00;;;15.40;45.50;;;;;;5101724;28;19915;-80
2023/03/28 11:34:57;;;;;;;0.17;0.17;;;15.50;48.90;;;;;;5099243;28;20048;-80
2023/03/28 11:37:43;;;;;;;0.65;0.65;;;15.10;46.80;;;;;;5100137;28;20020;-80
2023/03/28 11:40:36;;;;;;;0.03;0.03;;;15.10;47.90;;;;;;5066513;28;20024;-80
2023/03/28 11:43:05;;;;;;;0.10;0.10;;;15.20;50.40;;;;;;5084548;28;20043;-80
2023/03/28 11:45:41;;;;;;;0.13;0.13;;;15.30;49.20;;;;;;5092635;28;20477;-80
2023/03/28 11:48:27;;;;;;;0.08;0.08;;;15.20;51.00;;;;;;5093162;28;20111;-80
2023/03/28 11:51:19;;;;;;;0.00;0.00;;;15.20;53.90;;;;;;5092001;28;20402;-80
2023/03/28 11:53:56;;;;;;;1.63;1.17;;;15.00;49.70;;;;;;5092818;28;20031;-80
2023/03/28 11:56:59;;;;;;;0.00;0.00;;;15.00;49.20;;;;;;5095819;28;20107;-80
2023/03/28 11:59:37;;;;;;;0.10;0.10;;;14.80;49.20;;;;;;5100089;28;20075;-80
2023/03/28 12:02:17;;;;;;;0.00;0.00;;;14.80;52.10;;;;;;5091706;28;20028;-80
2023/03/28 12:05:05;;;;;;;0.20;0.20;;;14.80;52.20;;;;;;5103719;28;20066;-80
2023/03/28 12:07:42;;;;;;;0.10;0.10;;;14.70;47.30;;;;;;5101197;28;20781;-79
2023/03/28 12:10:22;;;;;;;0.20;0.20;;;14.70;46.90;;;;;;5101299;28;20205;-81
2023/03/28 12:13:04;;;;;;;0.00;0.00;;;14.70;55.50;;;;;;5103114;28;20050;-80
2023/03/28 12:15:56;;;;;;;0.08;0.08;;;14.90;52.50;;;;;;5099301;28;20027;-81
2023/03/28 12:18:30;;;;;;;0.00;0.00;;;14.90;52.60;;;;;;5088346;28;20028;-80
2023/03/28 12:21:12;;;;;;;0.00;0.00;;;15.00;55.40;;;;;;5102289;28;20032;-80
2023/03/28 12:23:57;;;;;;;0.05;0.05;;;15.10;55.80;;;;;;5091300;28;20031;-81
2023/03/28 12:26:43;;;;;;;0.00;0.00;;;15.10;54.20;;;;;;5098852;28;20615;-80
2023/03/28 12:29:27;;;;;;;0.10;0.10;;;15.10;51.60;;;;;;5100706;28;20160;-81
2023/03/28 12:31:59;;;;;;;0.00;0.00;;;15.10;51.60;;;;;;5096952;28;20032;-80
2023/03/28 12:34:32;;;;;;;0.60;0.60;;;15.20;53.50;;;;;;5091063;28;20070;-79
2023/03/28 12:37:11;;;;;;;0.20;0.20;;;15.20;50.40;;;;;;5095845;27;20749;-81
2023/03/28 12:39:47;;;;;;;0.43;0.43;;;15.10;46.10;;;;;;5097030;28;20035;-81
2023/03/28 12:42:17;;;;;;;0.20;0.20;;;15.00;49.50;;;;;;5086192;28;20036;-80
2023/03/28 12:45:05;;;;;;;0.10;0.10;;;15.10;50.40;;;;;;5098219;28;20020;-80
2023/03/28 12:47:42;;;;;;;0.00;0.00;;;15.10;50.10;;;;;;5098553;28;20478;-80
2023/03/28 12:50:26;;;;;;;0.00;0.00;;;15.00;51.70;;;;;;5090520;28;20036;-80
2023/03/28 12:52:53;;;;;;;0.10;0.10;;;15.00;47.80;;;;;;5099972;28;20039;-80
2023/03/28 12:55:25;;;;;;;0.20;0.20;;;14.90;45.10;;;;;;5101207;28;20028;-81
2023/03/28 12:57:53;;;;;;;0.00;0.00;;;15.10;44.50;;;;;;5090095;28;20422;-80
2023/03/28 13:00:27;;;;;;;0.10;0.10;;;15.30;44.50;;;;;;5095017;28;20028;-81
2023/03/28 13:03:06;;;;;;;0.10;0.10;;;15.10;43.60;;;;;;5088838;28;20042;-80
2023/03/28 13:05:53;;;;;;;0.35;0.17;;;15.30;43.00;;;;;;5097534;28;20080;-81
2023/03/28 13:08:45;;;;;;;0.20;0.20;;;15.40;41.90;;;;;;5100878;28;20027;-81
2023/03/28 13:11:18;;;;;;;0.00;0.00;;;15.60;45.50;;;;;;5104000;28;20090;-81
2023/03/28 13:14:02;;;;;;;0.10;0.10;;;15.50;42.60;;;;;;5090655;28;20078;-80
2023/03/28 13:16:56;;;;;;;0.00;0.00;;;15.40;44.20;;;;;;5087957;28;20454;-81
2023/03/28 13:19:42;;;;;;;0.05;0.05;;;15.40;44.50;;;;;;5089831;28;20024;-80
2023/03/28 13:22:35;;;;;;;0.25;0.25;;;15.30;44.30;;;;;;5093435;28;20024;-81